Thurmont, MD

3:08 AM EDT on April 25, 2017 (GMT -0400)
Orchard Hills | | Change Station

Elev 620 ft 39.62 °N, 77.42 °W | Updated 1 minute ago

Mostly Cloudy
Mostly Cloudy
48.9 °F
Feels Like 49 °F
N
2.0
Wind Variable Wind from North

Today
High -- | Low -- °F
--% Chance of Precip.
Yesterday
High -- | Low -- °F
Precip. -- in
Pressure 29.95 in
Visibility 2.5 miles
Clouds Overcast 1400 ft
Windchill 49 °F
Dew Point 45 °F
Humidity 88%
Rainfall 0.07 in
Snow Depth Not available.
6:17 AM 7:57 PM
Waning Crescent, 2% visible
SPECI KRSP 250631Z AUTO 10005KT 2 1/2SM RA BR OVC014 08/06 A2995 RMK AO2 VIS 1 1/2V5 RAB15 P0005 $
Pressure 29.95 in
Visibility 2.5 miles
Clouds Overcast 1400 ft
Windchill 49 °F
Dew Point 45 °F
Humidity 88%
Rainfall 0.07 in
Snow Depth Not available.
6:17 AM 7:57 PM
Waning Crescent, 2% visible
SPECI KRSP 250631Z AUTO 10005KT 2 1/2SM RA BR OVC014 08/06 A2995 RMK AO2 VIS 1 1/2V5 RAB15 P0005 $

Get Severe Weather Alerts

Thanks for signing up!

Be on the lookout for a verification email in your inbox.

You'll start receiving the daily forecast at 8 AM.

×

10-Day Weather Forecast

Almanac

Astronomy

Apr. 25, 2017 Rise Set
Actual Time
Civil Twilight
Nautical Twilight
Astronomical Twilight
Moon
Length of Visible Light
Length of Day
Tomorrow will be .
, % of the Moon is Illuminated

Today's Extremes

State Highs State Lows

Community

WunderPhotos

WunderBlog® & News

Nearby

Air Quality

  Air Quality AQ Index Pollutant
Not available.

Snow Depth

Station Depth Elevation

Earthquake Activity

City Distance Mag. Time & Date
Minimum magnitude displayed is 2.5.

Coastal Water Temperatures

Place Temperature

Stations

Nearby Weather Stations

Station Location Temp. Windchill Dew Point Humidity Wind Precip. Elev Updated Type
                   

Watches & Warnings

There are currently no watches in effect.